Flight Track Log - Related Links

Times and Time Zones

All times are in EDT time to prevent confusion due to time zone crossing. See the N431EH flight status page for this flight to view local times or setup timezone preferences in your user account.

Time Position Orientation Groundspeed Altitude Reporting Facility
EDT Latitude Longitude Course Direction KTS MPH feet Rate Location/Type
Wed 08:05:22 PM 41.7978 -107.2581 259° West 193 222 9,800  Level Salt Lake Center
Wed 08:06:28 PM 41.7819 -107.3719 259° West 277 319 13,700 3,469 Climbing Denver Center
Wed 08:07:30 PM 41.7658 -107.5056 261° West 311 358 17,200 3,194 Climbing Denver Center
Wed 08:08:32 PM 41.7675 -107.6253 271° West 331 381 20,300 3,242 Climbing Denver Center
Wed 08:09:34 PM 41.7714 -107.7719 272° West 348 400 23,900 3,000 Climbing Denver Center
Wed 08:10:36 PM 41.7742 -107.9042 272° West 366 421 26,500 2,521 Climbing Denver Center
Wed 08:11:33 PM 41.7775 -108.0417 272° West 383 441 28,900 1,066 Climbing Salt Lake Center
Wed 08:17:38 PM 41.7931 -108.9906 271° West 399 459 34,000 631 Climbing FlightAware ADS-B
Wed 08:19:38 PM 41.7947 -109.1209 271° West 426 490 34,000 -163 Level FlightAware ADS-B
Wed 08:21:19 PM 41.7990 -109.5475 271° West 421 484 33,400 -586 Descending FlightAware ADS-B
Wed 08:21:51 PM 41.7997 -109.6400 271° West 425 489 32,700 -1,161 Descending Salt Lake Center
Wed 08:22:52 PM 41.8011 -109.7872 271° West 420 483 31,600 -1,268 Descending Salt Lake Center
Wed 08:23:54 PM 41.8022 -109.9625 271° West 420 483 30,100 -774 Descending Salt Lake Center
Wed 08:24:56 PM 41.8025 -110.1053 270° West 405 466 30,000 -48 Descending Salt Lake Center
Wed 08:25:58 PM 41.8039 -110.2678 271° West 393 452 30,000  Level Salt Lake Center
Wed 08:26:59 PM 41.8028 -110.4103 269° West 398 458 30,000  Level Salt Lake Center
Wed 08:28:01 PM 41.8031 -110.5558 270° West 406 467 30,000  Level Salt Lake Center
Wed 08:29:03 PM 41.8033 -110.7233 270° West 405 466 30,000  Level Salt Lake Center
Wed 08:30:04 PM 41.8028 -110.8658 270° West 402 463 30,000 -537 Level Salt Lake Center
Wed 08:31:06 PM 41.8019 -111.0367 270° West 402 463 28,900 -1,065 Descending Salt Lake Center
Wed 08:32:08 PM 41.8017 -111.1853 270° West 402 463 27,800 -1,168 Descending Salt Lake Center
Wed 08:38:02 PM 41.7318 -112.0142 201° Southwest 411 473 20,800 -1,184 Descending FlightAware ADS-B (KBTF)
Wed 08:38:23 PM 41.6923 -112.0253 188° South 426 490 20,400 -1,200 Descending FlightAware ADS-B (KBTF)
Wed 08:39:02 PM 41.6169 -112.0373 187° South 406 467 19,600 -1,200 Descending FlightAware ADS-B (KBTF)
Wed 08:39:43 PM 41.5432 -112.0489 187° South 388 447 18,800 -1,275 Descending FlightAware ADS-B (KBTF)
Wed 08:40:22 PM 41.4714 -112.0614 190° South 379 436 17,900 -1,425 Descending FlightAware ADS-B (KBTF)
Wed 08:41:03 PM 41.4011 -112.0771 190° South 362 417 16,900 -1,259 Descending FlightAware ADS-B (KBTF)
Wed 08:41:43 PM 41.3357 -112.0912 190° South 329 379 16,200 -1,050 Descending FlightAware ADS-B (KBTF)
Wed 08:42:23 PM 41.2764 -112.1040 190° South 313 360 15,500 -1,083 Descending FlightAware ADS-B (KBTF)
Wed 08:42:55 PM 41.2297 -112.1140 189° South 324 373 14,900 -1,075 Descending FlightAware ADS-B
Wed 08:43:30 PM 41.1839 -112.1238 189° South 324 373 14,300 -1,108 Descending FlightAware ADS-B
Wed 08:44:00 PM 41.1363 -112.1340 189° South 305 351 13,700 -1,143 Descending FlightAware ADS-B
Wed 08:44:33 PM 41.1077 -112.1403 186° South 302 348 13,100 -1,116 Descending FlightAware ADS-B
Wed 08:44:43 PM 41.0746 -112.1447 179° South 307 353 12,900 -1,024 Descending FlightAware ADS-B
Wed 08:45:14 PM 41.0304 -112.1371 171° South 314 361 12,400 -952 Descending FlightAware ADS-B
Wed 08:45:46 PM 40.9852 -112.1274 171° South 302 348 11,900 -522 Descending FlightAware ADS-B
Wed 08:46:23 PM 40.9380 -112.1173 171° South 261 300 11,800 -575 Descending FlightAware ADS-B (KBTF)
Wed 08:46:59 PM 40.9059 -112.1105 174° South 255 293 11,200 -806 Descending FlightAware ADS-B
Wed 08:47:30 PM 40.8610 -112.1050 175° South 246 283 10,900 -286 Descending FlightAware ADS-B
Wed 08:48:02 PM 40.8219 -112.1006 175° South 260 299 10,900 -95 Level FlightAware ADS-B (KBTF)
Wed 08:48:33 PM 40.7988 -112.0978 175° South 254 292 10,800 -787 Descending FlightAware ADS-B
Wed 08:49:03 PM 40.7499 -112.0919 175° South 250 288 10,100 -1,294 Descending FlightAware ADS-B
Wed 08:49:24 PM 40.7268 -112.0892 175° South 246 283 9,700 -900 Descending FlightAware ADS-B (KBTF)
Wed 08:49:43 PM 40.7053 -112.0866 175° South 224 258 9,500 -316 Descending FlightAware ADS-B (KBTF)
Wed 08:50:02 PM 40.6852 -112.0842 175° South 209 241 9,500 -585 Level FlightAware ADS-B (KBTF)
Wed 08:50:24 PM 40.6645 -112.0785 157° South 211 243 9,100 -878 Descending FlightAware ADS-B (KBTF)
Wed 08:50:43 PM 40.6468 -112.0714 169° South 214 246 8,900 -308 Descending FlightAware ADS-B (KBTF)
Wed 08:51:03 PM 40.6274 -112.0646 157° South 195 224 8,900 -150 Level FlightAware ADS-B (KBTF)
Wed 08:51:23 PM 40.6157 -112.0461 103° East 204 235 8,800 -774 Descending FlightAware ADS-B (KBTF)
Wed 08:51:34 PM 40.6159 -112.0323 79° East 212 244 8,500 -1,500 Descending FlightAware ADS-B
Wed 08:51:43 PM 40.6198 -112.0217 57° Northeast 207 238 8,300 -621 Descending FlightAware ADS-B (KBTF)
Wed 08:52:03 PM 40.6335 -112.0071 23° Northeast 191 220 8,200 -450 Descending FlightAware ADS-B (KBTF)
Wed 08:52:23 PM 40.6493 -111.9999 21° North 154 177 8,000 -1,050 Descending FlightAware ADS-B (KBTF)
Wed 08:52:43 PM 40.6626 -111.9935 19° North 150 173 7,500 -1,350 Descending FlightAware ADS-B
Wed 08:53:03 PM 40.6756 -111.9897 11° North 135 155 7,100 -1,200 Descending FlightAware ADS-B (KBTF)
Wed 08:53:23 PM 40.6887 -111.9872 North 145 167 6,700 -1,200 Descending FlightAware ADS-B (KBTF)
Wed 08:53:43 PM 40.7014 -111.9860 12° North 136 157 6,300 -732 Descending FlightAware ADS-B (KBTF)
Wed 08:54:04 PM 40.7127 -111.9771 47° Northeast 144 166 6,200 -811 Descending FlightAware ADS-B (KBTF)
Wed 08:54:20 PM 40.7204 -111.9676 34° Northeast 138 159 5,800 -1,500 Descending FlightAware ADS-B (KBTF)
Wed 08:54:40 PM 40.7335 -111.9623 North 131 151 5,300 -1,395 Descending FlightAware ADS-B (KBTF)
Wed 08:55:03 PM 40.7479 -111.9621 North 129 148 4,800 -1,263 Descending FlightAware ADS-B (KBTF)
Wed 08:55:18 PM 40.7571 -111.9620 360° North 132 152 4,500 -900 Descending FlightAware ADS-B (KBTF)
Wed 08:55:43 PM 40.7725 -111.9621 360° North 170 196 4,200 -720 Descending FlightAware ADS-B (KBTF)

Login

Don't have an account? Register now (free) for customized features, flight alerts, and more!